Terminal Aerodrome Forecast
Issued by NWS Newport/Morehead City, NC

Home | Current Version | Previous Version | Text Only | Print | Product List | Glossary On
Versions: 1 2 3 4 5 6 7 8 9 10 11 12 13
043
FTUS42 KMHX 291121
TAFEWN
TAF
KEWN 291121Z 2912/3012 22008KT P6SM VCTS BKN035CB
     FM291600 25008KT P6SM VCSH BKN015
     FM292100 29009KT P6SM BKN025
     FM300200 34008KT P6SM BKN015=

USA.gov is the U.S. government's official web portal to all federal, state and local government web resources and services.